Time;durP1;ratioP1;P1;durP2;ratioP2;P2;SDS_P1;SDS_P2;PMS_P1;PMS_P2;Temp;Humidity;BMP_temperature;BMP_pressure;BME280_temperature;BME280_humidity;BME280_pressure;Samples;Min_cycle;Max_cycle;Signal;HPM_P1;HPM_P2
2021/12/18 00:00:34;;;;;;;18.67;11.32;;;;;;;;;;5097053;27;20070;-47
2021/12/18 00:03:00;;;;;;;19.98;11.93;;;;;;;;;;5096872;27;20044;-52
2021/12/18 00:05:26;;;;;;;21.02;12.02;;;;;;;;;;5099863;28;20054;-51
2021/12/18 00:07:51;;;;;;;21.83;12.82;;;;;;;;;;5094156;28;20524;-47
2021/12/18 00:10:23;;;;;;;19.48;12.60;;;;;;;;;;5108827;28;20039;-47
2021/12/18 00:12:49;;;;;;;23.52;15.25;;;;;;;;;;5100876;28;20031;-50
2021/12/18 00:15:20;;;;;;;25.98;16.35;;;;;;;;;;5096427;28;20059;-47
2021/12/18 00:17:46;;;;;;;20.75;14.95;;;;;;;;;;5093370;28;20456;-50
2021/12/18 00:20:14;;;;;;;22.50;15.05;;;;;;;;;;5101748;28;20027;-49
2021/12/18 00:22:41;;;;;;;23.15;14.93;;;;;;;;;;5105773;28;20061;-49
2021/12/18 00:25:07;;;;;;;27.77;15.50;;;;;;;;;;5102221;28;20445;-52
2021/12/18 00:27:33;;;;;;;21.60;14.05;;;;;;;;;;5099695;28;20485;-50
2021/12/18 00:29:59;;;;;;;26.35;14.90;;;;;;;;;;5091995;28;20032;-47
2021/12/18 00:32:24;;;;;;;20.85;13.77;;;;;;;;;;5088963;28;20020;-49
2021/12/18 00:34:50;;;;;;;21.65;13.73;;;;;;;;;;5102507;28;20077;-49
2021/12/18 00:37:16;;;;;;;21.27;14.10;;;;;;;;;;5097244;28;20028;-44
2021/12/18 00:39:55;;;;;;;23.75;13.68;;;;;;;;;;5112445;28;20564;-53
2021/12/18 00:44:50;;;;;;;23.88;14.38;;;;;;;;;;5096674;28;20385;-50
2021/12/18 00:47:16;;;;;;;27.00;14.50;;;;;;;;;;5099075;28;20039;-49
2021/12/18 00:49:42;;;;;;;28.70;14.88;;;;;;;;;;5098275;28;20534;-45
2021/12/18 00:52:08;;;;;;;23.25;13.50;;;;;;;;;;5101285;28;20059;-52
2021/12/18 00:54:35;;;;;;;16.15;11.48;;;;;;;;;;5096342;28;20083;-49
2021/12/18 00:57:02;;;;;;;17.30;12.00;;;;;;;;;;5092893;28;20036;-50
2021/12/18 00:59:28;;;;;;;25.02;14.90;;;;;;;;;;5094093;28;20032;-51
2021/12/18 01:01:54;;;;;;;19.08;13.45;;;;;;;;;;5097749;28;20389;-50
2021/12/18 01:04:20;;;;;;;22.85;13.55;;;;;;;;;;5094489;28;20023;-46
2021/12/18 01:06:46;;;;;;;27.30;13.57;;;;;;;;;;5094990;28;20024;-50
2021/12/18 01:09:12;;;;;;;22.58;13.50;;;;;;;;;;5090733;28;20084;-51
2021/12/18 01:11:44;;;;;;;26.92;15.32;;;;;;;;;;5096960;28;20106;-47
2021/12/18 01:22:49;;;;;;;19.90;11.88;;;;;;;;;;5030532;28;20042;-47
2021/12/18 01:25:18;;;;;;;19.90;12.50;;;;;;;;;;5031989;28;20057;-51
2021/12/18 01:27:44;;;;;;;16.67;11.48;;;;;;;;;;5031549;28;20033;-50
2021/12/18 01:30:12;;;;;;;19.23;12.07;;;;;;;;;;5024446;28;20228;-50
2021/12/18 01:32:38;;;;;;;16.63;11.23;;;;;;;;;;5035474;28;20033;-49
2021/12/18 01:35:04;;;;;;;17.60;11.45;;;;;;;;;;5011020;28;20049;-47
2021/12/18 01:37:30;;;;;;;15.65;10.35;;;;;;;;;;5021750;28;20046;-49
2021/12/18 01:39:56;;;;;;;16.33;10.90;;;;;;;;;;5039542;28;20033;-50
2021/12/18 01:52:40;;;;;;;20.55;12.27;;;;;;;;;;5102715;28;20041;-49
2021/12/18 01:55:08;;;;;;;20.38;12.40;;;;;;;;;;5098242;28;20041;-50
2021/12/18 01:57:34;;;;;;;21.25;12.50;;;;;;;;;;5096202;28;20082;-51
2021/12/18 02:00:00;;;;;;;20.35;11.85;;;;;;;;;;5101047;28;20488;-49
2021/12/18 02:02:26;;;;;;;18.38;12.05;;;;;;;;;;5095259;28;20117;-53
2021/12/18 02:04:52;;;;;;;15.95;11.23;;;;;;;;;;5098306;28;20092;-49
2021/12/18 02:07:18;;;;;;;16.38;11.27;;;;;;;;;;5096348;28;20027;-50
2021/12/18 02:10:02;;;;;;;16.88;11.25;;;;;;;;;;5096288;28;20039;-50
2021/12/18 02:12:40;;;;;;;20.42;11.90;;;;;;;;;;5095754;28;20085;-48
2021/12/18 02:20:45;;;;;;;19.75;11.80;;;;;;;;;;5099288;28;20381;-51
2021/12/18 02:23:11;;;;;;;27.20;14.15;;;;;;;;;;5097004;28;20031;-51
2021/12/18 02:25:37;;;;;;;29.67;17.25;;;;;;;;;;5073570;28;20549;-49
2021/12/18 02:28:07;;;;;;;27.90;17.70;;;;;;;;;;5083339;28;20404;-51
2021/12/18 02:30:33;;;;;;;29.13;16.85;;;;;;;;;;5084360;28;20495;-49
2021/12/18 02:32:59;;;;;;;27.75;16.85;;;;;;;;;;5078629;28;20107;-50
2021/12/18 02:35:39;;;;;;;31.27;17.08;;;;;;;;;;5075903;28;20537;-45
2021/12/18 02:38:09;;;;;;;29.52;15.98;;;;;;;;;;5078923;28;20397;-49
2021/12/18 02:43:14;;;;;;;28.35;14.35;;;;;;;;;;5076245;28;20032;-44
2021/12/18 02:45:40;;;;;;;24.42;14.35;;;;;;;;;;5077843;28;20515;-44
2021/12/18 02:48:05;;;;;;;20.15;13.80;;;;;;;;;;5073234;28;20397;-43
2021/12/18 02:50:31;;;;;;;22.48;13.02;;;;;;;;;;5078899;28;20042;-45
2021/12/18 02:52:57;;;;;;;17.85;11.82;;;;;;;;;;5076382;28;20059;-45
2021/12/18 02:55:23;;;;;;;20.30;11.75;;;;;;;;;;5077155;28;20036;-44
2021/12/18 02:57:49;;;;;;;20.23;11.57;;;;;;;;;;5080959;28;20039;-44
2021/12/18 03:00:15;;;;;;;20.98;12.07;;;;;;;;;;5080150;28;20485;-45
2021/12/18 03:02:44;;;;;;;18.42;11.45;;;;;;;;;;5079780;28;20028;-49
2021/12/18 03:05:17;;;;;;;17.08;10.50;;;;;;;;;;5075936;28;20097;-44
2021/12/18 03:07:43;;;;;;;23.90;11.90;;;;;;;;;;5077784;28;20396;-44
2021/12/18 03:23:29;;;;;;;12.60;8.82;;;;;;;;;;5072509;28;20025;-45
2021/12/18 03:25:58;;;;;;;13.90;9.27;;;;;;;;;;5102996;27;20054;-46
2021/12/18 03:28:25;;;;;;;14.48;9.45;;;;;;;;;;5099101;28;20385;-44
2021/12/18 03:30:51;;;;;;;15.70;9.77;;;;;;;;;;5096707;28;20404;-50
2021/12/18 03:33:17;;;;;;;16.25;9.63;;;;;;;;;;5096337;27;20093;-45
2021/12/18 03:35:45;;;;;;;16.52;9.48;;;;;;;;;;5106408;27;20066;-44
2021/12/18 03:38:11;;;;;;;12.20;8.50;;;;;;;;;;5096889;28;20084;-46
2021/12/18 03:40:37;;;;;;;14.52;8.40;;;;;;;;;;5096098;28;20031;-45
2021/12/18 03:43:03;;;;;;;14.60;9.15;;;;;;;;;;5103983;27;20047;-44
2021/12/18 03:45:29;;;;;;;12.00;9.15;;;;;;;;;;5092867;28;20055;-45
2021/12/18 03:47:55;;;;;;;17.60;10.20;;;;;;;;;;5096698;28;20075;-46
2021/12/18 03:50:21;;;;;;;15.23;9.93;;;;;;;;;;5098731;28;20066;-45
2021/12/18 03:52:48;;;;;;;13.88;9.07;;;;;;;;;;5096334;27;20092;-45
2021/12/18 03:55:15;;;;;;;14.40;9.88;;;;;;;;;;5076316;28;20069;-49
2021/12/18 03:57:40;;;;;;;20.58;10.90;;;;;;;;;;5094163;28;20440;-46
2021/12/18 04:00:09;;;;;;;15.63;10.82;;;;;;;;;;5103702;28;20076;-46
2021/12/18 04:02:35;;;;;;;17.73;11.23;;;;;;;;;;5089676;28;20028;-48
2021/12/18 04:05:01;;;;;;;19.85;10.98;;;;;;;;;;5092892;28;20032;-50
2021/12/18 04:07:27;;;;;;;22.40;11.18;;;;;;;;;;5099870;28;20483;-50
2021/12/18 04:09:53;;;;;;;20.85;9.63;;;;;;;;;;5092072;28;20176;-45
2021/12/18 04:12:19;;;;;;;17.85;9.60;;;;;;;;;;5082393;28;20060;-48
2021/12/18 04:14:45;;;;;;;17.65;9.15;;;;;;;;;;5096979;28;20082;-47
2021/12/18 04:17:11;;;;;;;15.35;8.32;;;;;;;;;;5094057;28;20044;-48
2021/12/18 04:19:37;;;;;;;13.43;8.30;;;;;;;;;;5095628;28;20464;-47
2021/12/18 04:22:03;;;;;;;12.90;8.15;;;;;;;;;;5094477;28;20118;-45
2021/12/18 04:24:29;;;;;;;13.18;8.85;;;;;;;;;;5103100;28;20044;-49
2021/12/18 04:26:56;;;;;;;16.75;8.23;;;;;;;;;;5100443;28;20034;-44
2021/12/18 04:29:22;;;;;;;16.70;8.48;;;;;;;;;;5095523;28;20043;-48
2021/12/18 04:31:47;;;;;;;12.18;8.68;;;;;;;;;;5093830;28;20385;-46
2021/12/18 04:34:13;;;;;;;12.60;8.80;;;;;;;;;;5094847;28;20024;-45
2021/12/18 04:36:39;;;;;;;13.43;8.15;;;;;;;;;;5100216;28;20031;-45
2021/12/18 04:39:04;;;;;;;13.25;8.30;;;;;;;;;;5093753;28;20097;-46
2021/12/18 04:41:40;;;;;;;12.02;8.20;;;;;;;;;;5095853;28;20032;-52
2021/12/18 04:44:06;;;;;;;13.10;8.68;;;;;;;;;;5095647;28;20056;-46
2021/12/18 04:46:32;;;;;;;14.70;8.80;;;;;;;;;;5095499;28;20071;-44
2021/12/18 04:48:58;;;;;;;13.88;9.57;;;;;;;;;;5103587;28;20084;-51
2021/12/18 04:51:23;;;;;;;15.10;10.15;;;;;;;;;;5100473;27;20028;-46
2021/12/18 04:53:49;;;;;;;12.55;9.02;;;;;;;;;;5098690;28;20118;-49
2021/12/18 04:56:15;;;;;;;17.35;9.02;;;;;;;;;;5106503;27;20036;-44
2021/12/18 04:58:40;;;;;;;13.32;8.85;;;;;;;;;;5102150;28;20185;-44
2021/12/18 05:01:06;;;;;;;10.80;7.90;;;;;;;;;;5106362;27;20483;-47
2021/12/18 05:03:32;;;;;;;12.80;7.88;;;;;;;;;;5101793;28;20080;-51
2021/12/18 05:06:00;;;;;;;15.82;8.15;;;;;;;;;;5104486;28;20411;-51
2021/12/18 05:08:26;;;;;;;9.35;7.78;;;;;;;;;;5101165;27;20024;-50
2021/12/18 05:10:52;;;;;;;12.27;8.13;;;;;;;;;;5104858;28;20023;-50
2021/12/18 05:13:18;;;;;;;13.13;8.02;;;;;;;;;;5099428;28;20129;-48
2021/12/18 05:15:43;;;;;;;9.90;7.40;;;;;;;;;;5102881;28;20031;-48
2021/12/18 05:18:09;;;;;;;10.90;7.95;;;;;;;;;;5106955;27;20031;-46
2021/12/18 05:20:36;;;;;;;10.90;7.82;;;;;;;;;;5096870;28;20027;-49
2021/12/18 05:23:01;;;;;;;14.30;8.05;;;;;;;;;;5099912;28;20028;-51
2021/12/18 05:25:27;;;;;;;14.43;8.73;;;;;;;;;;5100755;28;20102;-48
2021/12/18 05:27:53;;;;;;;14.55;8.48;;;;;;;;;;5097936;28;20067;-51
2021/12/18 05:30:19;;;;;;;14.77;9.00;;;;;;;;;;5103337;27;20510;-49
2021/12/18 05:32:44;;;;;;;16.15;8.88;;;;;;;;;;5103018;28;20044;-50
2021/12/18 05:35:10;;;;;;;11.93;7.95;;;;;;;;;;5097852;27;20486;-49
2021/12/18 05:40:17;;;;;;;16.40;9.43;;;;;;;;;;5094011;28;20432;-45
2021/12/18 05:42:43;;;;;;;19.08;12.82;;;;;;;;;;5102025;28;20032;-50
2021/12/18 05:45:09;;;;;;;19.00;11.13;;;;;;;;;;5092991;28;20028;-50
2021/12/18 05:47:36;;;;;;;11.63;8.45;;;;;;;;;;5086513;28;20031;-51
2021/12/18 05:50:03;;;;;;;19.00;11.38;;;;;;;;;;5081456;28;20098;-46
2021/12/18 05:52:30;;;;;;;25.08;13.27;;;;;;;;;;5082954;28;20414;-52
2021/12/18 05:54:56;;;;;;;20.70;12.80;;;;;;;;;;5097609;27;20122;-46
2021/12/18 05:57:22;;;;;;;20.65;13.23;;;;;;;;;;5106734;28;20445;-49
2021/12/18 05:59:49;;;;;;;23.50;13.27;;;;;;;;;;5101167;28;20024;-49
2021/12/18 06:02:15;;;;;;;27.20;14.00;;;;;;;;;;5105623;27;20487;-47
2021/12/18 06:04:42;;;;;;;27.70;14.95;;;;;;;;;;5103150;27;20023;-46
2021/12/18 06:07:16;;;;;;;22.85;14.57;;;;;;;;;;5097368;28;20032;-50
2021/12/18 06:09:42;;;;;;;29.00;14.43;;;;;;;;;;5100857;28;20515;-44
2021/12/18 06:12:09;;;;;;;23.95;13.95;;;;;;;;;;5097897;27;20074;-51
2021/12/18 06:14:34;;;;;;;29.00;14.63;;;;;;;;;;5099903;27;20036;-48
2021/12/18 06:17:00;;;;;;;28.77;15.25;;;;;;;;;;5101760;27;20027;-49
2021/12/18 06:19:26;;;;;;;28.92;15.52;;;;;;;;;;5088921;28;20038;-46
2021/12/18 06:21:51;;;;;;;21.02;12.82;;;;;;;;;;5096812;28;20047;-50
2021/12/18 06:24:17;;;;;;;17.70;12.35;;;;;;;;;;5094008;28;20107;-50
2021/12/18 06:26:44;;;;;;;18.17;12.15;;;;;;;;;;5099291;27;20072;-50
2021/12/18 06:29:10;;;;;;;16.77;10.23;;;;;;;;;;5098373;28;20090;-48
2021/12/18 06:31:38;;;;;;;18.88;10.40;;;;;;;;;;5100879;28;20050;-47
2021/12/18 06:34:04;;;;;;;13.90;9.80;;;;;;;;;;5095035;28;20044;-51
2021/12/18 06:36:30;;;;;;;20.70;13.20;;;;;;;;;;5094812;27;20049;-48
2021/12/18 06:38:56;;;;;;;20.95;14.18;;;;;;;;;;5088569;28;20035;-50
2021/12/18 06:41:21;;;;;;;14.60;10.27;;;;;;;;;;5099634;28;20024;-49
2021/12/18 06:43:47;;;;;;;12.95;9.15;;;;;;;;;;5098501;27;20495;-47
2021/12/18 06:46:13;;;;;;;16.17;9.65;;;;;;;;;;5104349;28;20036;-52
2021/12/18 06:48:38;;;;;;;17.10;10.65;;;;;;;;;;5095243;28;20476;-53
2021/12/18 06:51:04;;;;;;;20.02;11.40;;;;;;;;;;5093139;28;20116;-50
2021/12/18 06:53:30;;;;;;;15.52;10.75;;;;;;;;;;5103041;27;20020;-50
2021/12/18 06:55:56;;;;;;;21.15;11.70;;;;;;;;;;5098202;28;20043;-46
2021/12/18 06:58:22;;;;;;;14.77;10.40;;;;;;;;;;5081861;28;20514;-51
2021/12/18 07:00:47;;;;;;;17.98;11.75;;;;;;;;;;5095036;27;20055;-51
2021/12/18 07:03:13;;;;;;;22.00;11.60;;;;;;;;;;5097997;28;20119;-50
2021/12/18 07:05:39;;;;;;;17.30;11.52;;;;;;;;;;5103348;27;20020;-51
2021/12/18 07:08:05;;;;;;;20.60;12.18;;;;;;;;;;5093588;28;20040;-48
2021/12/18 07:10:31;;;;;;;19.65;14.85;;;;;;;;;;5095030;28;20031;-50
2021/12/18 07:12:58;;;;;;;33.10;20.75;;;;;;;;;;5094863;27;20122;-50
2021/12/18 07:15:24;;;;;;;19.27;12.98;;;;;;;;;;5099923;28;20111;-49
2021/12/18 07:17:49;;;;;;;27.48;14.82;;;;;;;;;;5101672;27;20295;-52
2021/12/18 07:20:15;;;;;;;17.52;13.25;;;;;;;;;;5106358;27;20489;-50
2021/12/18 07:22:41;;;;;;;22.60;14.38;;;;;;;;;;5092575;28;20036;-52
2021/12/18 07:25:08;;;;;;;18.67;10.18;;;;;;;;;;5100108;27;20523;-52
2021/12/18 07:27:34;;;;;;;15.18;11.90;;;;;;;;;;5094419;28;20084;-48
2021/12/18 07:29:59;;;;;;;23.83;15.20;;;;;;;;;;5107247;27;20488;-52
2021/12/18 07:32:27;;;;;;;22.80;14.57;;;;;;;;;;5098898;28;20050;-54
2021/12/18 07:34:53;;;;;;;21.77;13.52;;;;;;;;;;5096272;28;20040;-52
2021/12/18 07:37:19;;;;;;;14.68;10.73;;;;;;;;;;5103624;27;20042;-54
2021/12/18 07:39:45;;;;;;;16.75;11.00;;;;;;;;;;5095909;28;20088;-53
2021/12/18 07:42:11;;;;;;;16.52;10.80;;;;;;;;;;5107912;28;20027;-47
2021/12/18 07:44:39;;;;;;;16.25;10.73;;;;;;;;;;5107051;27;20038;-50
2021/12/18 07:47:05;;;;;;;17.52;10.85;;;;;;;;;;5092349;28;20662;-48
2021/12/18 07:49:31;;;;;;;25.00;11.43;;;;;;;;;;5095899;28;20063;-47
2021/12/18 07:52:01;;;;;;;19.92;13.70;;;;;;;;;;5107807;27;20420;-45
2021/12/18 07:54:27;;;;;;;23.45;13.38;;;;;;;;;;5095170;28;20070;-46
2021/12/18 07:56:53;;;;;;;19.73;11.48;;;;;;;;;;5092593;28;20059;-47
2021/12/18 07:59:19;;;;;;;17.75;10.63;;;;;;;;;;5101977;27;20028;-52
2021/12/18 08:01:45;;;;;;;19.70;10.95;;;;;;;;;;5084991;28;20519;-48
2021/12/18 08:04:11;;;;;;;16.58;10.48;;;;;;;;;;5098094;27;20042;-49
2021/12/18 08:06:37;;;;;;;17.73;9.70;;;;;;;;;;5115036;27;20106;-47
2021/12/18 08:09:03;;;;;;;9.05;8.05;;;;;;;;;;5092021;28;20040;-47
2021/12/18 08:11:28;;;;;;;12.18;8.93;;;;;;;;;;5102507;28;20031;-53
2021/12/18 08:13:54;;;;;;;13.77;9.10;;;;;;;;;;5094050;28;20093;-49
2021/12/18 08:16:20;;;;;;;14.45;8.93;;;;;;;;;;5105021;28;20032;-48
2021/12/18 08:18:46;;;;;;;15.50;8.50;;;;;;;;;;5091834;28;20103;-46
2021/12/18 08:21:13;;;;;;;17.55;11.95;;;;;;;;;;5095360;28;20031;-53
2021/12/18 08:23:39;;;;;;;19.73;11.65;;;;;;;;;;5099658;28;20080;-46
2021/12/18 08:26:05;;;;;;;20.90;12.70;;;;;;;;;;5098457;28;20513;-48
2021/12/18 08:28:31;;;;;;;17.67;11.90;;;;;;;;;;5084297;28;20476;-51
2021/12/18 08:30:57;;;;;;;21.83;14.13;;;;;;;;;;5082429;28;20035;-48
2021/12/18 08:33:23;;;;;;;20.73;13.57;;;;;;;;;;5083439;28;20028;-45
2021/12/18 08:35:49;;;;;;;30.83;16.70;;;;;;;;;;5099035;27;20038;-49
2021/12/18 08:38:15;;;;;;;38.45;19.98;;;;;;;;;;5084525;28;20028;-52
2021/12/18 08:40:42;;;;;;;52.47;27.15;;;;;;;;;;5103765;27;20028;-48
2021/12/18 08:43:09;;;;;;;52.28;28.60;;;;;;;;;;5102458;28;20042;-53
2021/12/18 08:45:35;;;;;;;49.95;28.70;;;;;;;;;;5104198;27;20032;-53
2021/12/18 08:48:00;;;;;;;41.63;21.95;;;;;;;;;;5078285;28;20085;-45
2021/12/18 08:50:27;;;;;;;35.72;21.55;;;;;;;;;;5098153;28;20032;-46
2021/12/18 08:52:53;;;;;;;72.78;36.70;;;;;;;;;;5102353;27;20093;-51
2021/12/18 08:55:20;;;;;;;80.90;42.33;;;;;;;;;;5101576;27;20530;-48
2021/12/18 08:57:46;;;;;;;96.70;47.95;;;;;;;;;;5096794;28;20027;-48
2021/12/18 09:00:16;;;;;;;111.53;56.20;;;;;;;;;;5096281;27;20051;-48
2021/12/18 09:02:46;;;;;;;120.63;58.08;;;;;;;;;;5100318;28;20122;-50
2021/12/18 09:05:12;;;;;;;91.93;47.75;;;;;;;;;;5099227;28;20054;-49
2021/12/18 09:07:41;;;;;;;103.65;51.78;;;;;;;;;;5095552;28;20024;-51
2021/12/18 09:10:09;;;;;;;153.05;78.97;;;;;;;;;;5099605;27;20032;-47
2021/12/18 09:12:35;;;;;;;200.90;100.53;;;;;;;;;;5099694;28;20046;-50
2021/12/18 09:15:01;;;;;;;180.75;91.65;;;;;;;;;;5101242;27;20039;-51
2021/12/18 09:17:28;;;;;;;157.57;81.32;;;;;;;;;;5101727;28;21011;-48
2021/12/18 09:19:54;;;;;;;124.40;64.63;;;;;;;;;;5098074;28;20036;-47
2021/12/18 09:22:20;;;;;;;105.10;53.28;;;;;;;;;;5095336;28;20027;-48
2021/12/18 09:24:46;;;;;;;83.00;43.58;;;;;;;;;;5099974;28;20043;-50
2021/12/18 09:27:15;;;;;;;91.75;47.33;;;;;;;;;;5094286;27;20089;-51
2021/12/18 09:29:41;;;;;;;72.57;37.75;;;;;;;;;;5102957;27;20031;-52
2021/12/18 09:32:07;;;;;;;51.35;28.52;;;;;;;;;;5099947;27;20032;-47
2021/12/18 09:34:34;;;;;;;29.45;14.98;;;;;;;;;;5095390;28;20027;-50
2021/12/18 09:36:59;;;;;;;14.38;8.20;;;;;;;;;;5097845;27;20032;-48
2021/12/18 09:39:26;;;;;;;14.10;7.30;;;;;;;;;;5095005;28;20032;-52
2021/12/18 09:41:53;;;;;;;37.88;22.80;;;;;;;;;;5095328;28;20072;-48
2021/12/18 09:44:27;;;;;;;36.78;20.83;;;;;;;;;;5099887;27;20028;-51
2021/12/18 09:46:54;;;;;;;66.47;34.85;;;;;;;;;;5094671;28;20385;-51
2021/12/18 09:49:21;;;;;;;66.43;39.47;;;;;;;;;;5097119;28;20039;-47
2021/12/18 09:51:47;;;;;;;78.65;39.53;;;;;;;;;;5097872;28;20077;-48
2021/12/18 09:54:13;;;;;;;73.72;39.28;;;;;;;;;;5096417;27;20762;-46
2021/12/18 09:56:39;;;;;;;78.38;38.90;;;;;;;;;;5104020;28;20080;-53
2021/12/18 09:59:06;;;;;;;42.42;23.65;;;;;;;;;;5077262;27;20146;-52
2021/12/18 10:01:34;;;;;;;12.75;7.53;;;;;;;;;;5109441;27;20027;-51
2021/12/18 10:04:02;;;;;;;7.05;5.82;;;;;;;;;;5104675;27;20036;-49
2021/12/18 10:06:34;;;;;;;8.45;5.20;;;;;;;;;;5093771;28;20508;-53
2021/12/18 10:09:04;;;;;;;9.05;5.47;;;;;;;;;;5101778;27;20063;-51
2021/12/18 10:11:30;;;;;;;7.03;4.80;;;;;;;;;;5097842;28;20658;-48
2021/12/18 10:14:02;;;;;;;10.98;6.15;;;;;;;;;;5103309;27;20122;-51
2021/12/18 10:16:31;;;;;;;12.23;7.10;;;;;;;;;;5084561;28;20035;-46
2021/12/18 10:19:37;;;;;;;11.60;6.13;;;;;;;;;;5101762;28;20312;-48
2021/12/18 10:22:08;;;;;;;8.07;5.53;;;;;;;;;;5100914;28;20073;-53
2021/12/18 10:24:36;;;;;;;7.70;5.70;;;;;;;;;;5099917;27;20123;-53
2021/12/18 10:27:26;;;;;;;12.43;6.28;;;;;;;;;;5078450;28;20032;-50
2021/12/18 10:30:06;;;;;;;6.18;4.93;;;;;;;;;;5095205;27;20032;-53
2021/12/18 10:32:32;;;;;;;8.98;5.28;;;;;;;;;;5101304;28;20103;-52
2021/12/18 10:34:59;;;;;;;8.25;5.65;;;;;;;;;;5093673;28;20116;-51
2021/12/18 10:37:31;;;;;;;6.30;4.28;;;;;;;;;;5100903;27;20036;-53
2021/12/18 10:40:10;;;;;;;8.57;4.53;;;;;;;;;;5092907;28;20028;-49
2021/12/18 10:42:45;;;;;;;8.48;4.75;;;;;;;;;;5098705;28;20465;-45
2021/12/18 10:45:21;;;;;;;15.50;4.93;;;;;;;;;;5091032;28;20247;-48
2021/12/18 10:48:17;;;;;;;11.13;4.47;;;;;;;;;;5092037;28;20067;-48
2021/12/18 10:50:43;;;;;;;8.85;4.72;;;;;;;;;;5079883;28;20035;-48
2021/12/18 10:53:24;;;;;;;26.80;10.00;;;;;;;;;;5096492;28;20027;-50
2021/12/18 10:55:57;;;;;;;38.45;15.27;;;;;;;;;;5095325;27;20024;-45
2021/12/18 10:58:29;;;;;;;32.25;17.85;;;;;;;;;;5096867;28;20026;-47
2021/12/18 11:01:12;;;;;;;31.30;18.98;;;;;;;;;;5073833;28;20040;-51
2021/12/18 11:03:44;;;;;;;34.65;20.33;;;;;;;;;;5079353;28;20034;-50
2021/12/18 11:06:22;;;;;;;34.20;20.58;;;;;;;;;;5078689;28;20028;-50
2021/12/18 11:09:11;;;;;;;32.70;20.70;;;;;;;;;;5094510;28;20056;-46
2021/12/18 11:14:14;;;;;;;32.22;19.98;;;;;;;;;;5097088;28;20477;-53
2021/12/18 11:16:43;;;;;;;30.17;19.20;;;;;;;;;;5097324;28;20028;-52
2021/12/18 11:19:13;;;;;;;29.60;20.35;;;;;;;;;;5096158;28;20039;-50
2021/12/18 11:21:46;;;;;;;33.78;19.40;;;;;;;;;;5096582;28;20038;-50
2021/12/18 11:24:13;;;;;;;40.13;19.98;;;;;;;;;;5078499;28;20027;-50
2021/12/18 11:27:09;;;;;;;34.75;19.10;;;;;;;;;;5083814;28;20081;-47
2021/12/18 11:29:44;;;;;;;35.88;20.00;;;;;;;;;;5095783;28;20020;-50
2021/12/18 11:32:16;;;;;;;34.78;18.23;;;;;;;;;;5095787;28;20085;-51
2021/12/18 11:34:43;;;;;;;34.10;19.50;;;;;;;;;;5101497;28;20027;-47
2021/12/18 11:37:12;;;;;;;31.52;19.65;;;;;;;;;;5104055;28;20054;-52
2021/12/18 11:39:40;;;;;;;28.63;18.55;;;;;;;;;;5089798;27;20043;-51
2021/12/18 11:42:07;;;;;;;34.03;19.67;;;;;;;;;;5092892;28;20730;-45
2021/12/18 11:44:40;;;;;;;31.65;19.15;;;;;;;;;;5098296;28;20090;-49
2021/12/18 11:47:34;;;;;;;39.13;20.85;;;;;;;;;;5094400;28;20535;-49
2021/12/18 11:50:26;;;;;;;34.42;22.42;;;;;;;;;;5099657;28;20046;-49
2021/12/18 11:52:52;;;;;;;40.65;23.85;;;;;;;;;;5096798;28;20028;-50
2021/12/18 11:55:18;;;;;;;36.10;22.83;;;;;;;;;;5091076;28;20081;-50
2021/12/18 11:57:50;;;;;;;34.65;21.85;;;;;;;;;;5095861;28;20528;-47
2021/12/18 12:00:19;;;;;;;33.05;22.30;;;;;;;;;;5094786;28;20031;-53
2021/12/18 12:02:49;;;;;;;40.15;20.95;;;;;;;;;;5091254;28;21766;-47
2021/12/18 12:05:18;;;;;;;29.13;20.48;;;;;;;;;;5096097;28;20105;-50
2021/12/18 12:07:45;;;;;;;31.60;20.38;;;;;;;;;;5094343;28;20095;-50
2021/12/18 12:10:50;;;;;;;45.08;21.88;;;;;;;;;;5095652;28;20366;-45
2021/12/18 12:13:09;;;;;;;36.90;22.95;;;;;;;;;;5091423;28;20043;-46
2021/12/18 12:15:49;;;;;;;40.97;24.63;;;;;;;;;;5102089;28;20387;-45
2021/12/18 12:18:15;;;;;;;33.03;22.17;;;;;;;;;;5091203;28;20027;-47
2021/12/18 12:20:43;;;;;;;33.17;21.90;;;;;;;;;;5100295;28;20028;-45
2021/12/18 12:23:10;;;;;;;32.55;22.50;;;;;;;;;;5101619;28;20054;-50
2021/12/18 12:26:01;;;;;;;36.80;23.23;;;;;;;;;;5092194;28;20044;-47
2021/12/18 12:28:27;;;;;;;34.13;23.42;;;;;;;;;;5094168;28;20112;-46
2021/12/18 12:31:06;;;;;;;30.80;21.88;;;;;;;;;;5091370;28;20020;-53
2021/12/18 12:33:35;;;;;;;33.33;20.77;;;;;;;;;;5083805;28;20068;-48
2021/12/18 12:36:10;;;;;;;30.27;20.70;;;;;;;;;;5089989;28;20051;-53
2021/12/18 12:39:01;;;;;;;30.77;21.65;;;;;;;;;;5093952;28;20032;-51
2021/12/18 12:41:27;;;;;;;27.40;19.52;;;;;;;;;;5091020;28;20096;-47
2021/12/18 12:43:56;;;;;;;35.22;20.80;;;;;;;;;;5069467;28;20119;-49
2021/12/18 12:46:24;;;;;;;34.75;20.85;;;;;;;;;;5091032;28;20024;-53
2021/12/18 12:49:09;;;;;;;37.10;21.90;;;;;;;;;;5092380;28;20036;-49
2021/12/18 12:51:56;;;;;;;32.13;21.35;;;;;;;;;;5089816;28;20100;-50
2021/12/18 12:54:53;;;;;;;31.10;21.33;;;;;;;;;;5094194;28;20495;-45
2021/12/18 12:57:21;;;;;;;32.92;22.10;;;;;;;;;;5092471;28;20155;-46
2021/12/18 12:59:51;;;;;;;33.78;22.75;;;;;;;;;;5094560;28;20040;-51
2021/12/18 13:02:17;;;;;;;41.67;24.02;;;;;;;;;;5090331;28;20086;-46
2021/12/18 13:04:43;;;;;;;35.72;23.00;;;;;;;;;;5101001;28;20563;-46
2021/12/18 13:07:10;;;;;;;32.88;22.67;;;;;;;;;;5095397;28;20543;-49
2021/12/18 13:09:44;;;;;;;34.17;22.95;;;;;;;;;;5100767;28;20025;-48
2021/12/18 13:12:10;;;;;;;32.97;21.92;;;;;;;;;;5093638;28;20035;-50
2021/12/18 13:14:41;;;;;;;33.63;21.40;;;;;;;;;;5102168;28;20028;-50
2021/12/18 13:17:17;;;;;;;38.15;24.13;;;;;;;;;;5092337;28;20030;-49
2021/12/18 13:19:59;;;;;;;36.67;23.90;;;;;;;;;;5099073;28;20032;-47
2021/12/18 13:22:31;;;;;;;36.78;22.85;;;;;;;;;;5093336;28;20031;-50
2021/12/18 13:25:12;;;;;;;37.75;21.58;;;;;;;;;;5095090;28;20083;-47
2021/12/18 13:27:40;;;;;;;37.70;23.08;;;;;;;;;;5095546;28;20483;-49
2021/12/18 13:30:18;;;;;;;37.58;24.83;;;;;;;;;;5093586;28;20048;-49
2021/12/18 13:32:57;;;;;;;35.50;23.40;;;;;;;;;;5100238;28;20074;-48
2021/12/18 13:35:25;;;;;;;29.98;22.75;;;;;;;;;;5098537;28;20028;-47
2021/12/18 13:38:17;;;;;;;32.60;21.48;;;;;;;;;;5093082;28;20050;-50
2021/12/18 13:40:48;;;;;;;31.63;20.80;;;;;;;;;;5091320;28;20056;-47
2021/12/18 13:43:25;;;;;;;29.85;20.92;;;;;;;;;;5095240;28;20030;-48
2021/12/18 13:45:56;;;;;;;42.15;20.98;;;;;;;;;;5092722;28;20032;-49
2021/12/18 13:48:25;;;;;;;32.60;21.23;;;;;;;;;;5100048;28;20051;-51
2021/12/18 13:51:01;;;;;;;29.52;20.55;;;;;;;;;;5097255;28;20122;-45
2021/12/18 13:53:27;;;;;;;30.92;19.98;;;;;;;;;;5096190;28;20081;-45
2021/12/18 13:55:58;;;;;;;33.13;21.23;;;;;;;;;;5090385;28;20123;-46
2021/12/18 13:58:27;;;;;;;33.42;23.38;;;;;;;;;;5097851;28;20067;-46
2021/12/18 14:00:57;;;;;;;29.95;21.13;;;;;;;;;;5098007;28;20062;-51
2021/12/18 14:03:38;;;;;;;33.63;23.60;;;;;;;;;;5099490;28;20472;-49
2021/12/18 14:06:33;;;;;;;34.20;22.33;;;;;;;;;;5093760;28;20035;-46
2021/12/18 14:09:20;;;;;;;28.95;17.00;;;;;;;;;;5095045;28;20040;-50
2021/12/18 14:12:02;;;;;;;21.73;15.80;;;;;;;;;;5091909;28;20077;-48
2021/12/18 14:14:48;;;;;;;17.20;12.80;;;;;;;;;;5092782;28;20381;-52
2021/12/18 14:17:24;;;;;;;14.98;9.18;;;;;;;;;;5104619;28;20092;-50
2021/12/18 14:19:52;;;;;;;18.35;10.55;;;;;;;;;;5095858;28;20051;-47
2021/12/18 14:22:31;;;;;;;14.10;9.38;;;;;;;;;;5092238;28;20051;-45
2021/12/18 14:25:11;;;;;;;11.65;8.60;;;;;;;;;;5093944;28;20097;-47
2021/12/18 14:27:50;;;;;;;16.90;10.25;;;;;;;;;;5095608;28;20063;-53
2021/12/18 14:30:24;;;;;;;15.85;10.40;;;;;;;;;;5094542;28;20015;-46
2021/12/18 14:33:10;;;;;;;12.93;8.00;;;;;;;;;;5095178;28;20032;-45
2021/12/18 14:35:52;;;;;;;20.15;13.90;;;;;;;;;;5095644;28;20032;-49
2021/12/18 14:38:20;;;;;;;15.93;11.15;;;;;;;;;;5093705;28;20073;-45
2021/12/18 14:40:57;;;;;;;25.02;16.55;;;;;;;;;;5097097;28;20032;-50
2021/12/18 14:43:25;;;;;;;12.43;8.90;;;;;;;;;;5093632;28;20051;-50
2021/12/18 14:45:51;;;;;;;28.08;17.65;;;;;;;;;;5095319;28;20023;-46
2021/12/18 14:48:30;;;;;;;15.88;8.93;;;;;;;;;;5091783;28;20077;-52
2021/12/18 14:50:56;;;;;;;15.15;7.50;;;;;;;;;;5091401;28;20066;-50
2021/12/18 14:53:24;;;;;;;11.10;7.85;;;;;;;;;;5096887;28;20400;-48
2021/12/18 14:55:53;;;;;;;11.35;7.13;;;;;;;;;;5094890;28;20035;-49
2021/12/18 14:58:27;;;;;;;19.88;10.05;;;;;;;;;;5092621;28;20039;-50
2021/12/18 15:00:58;;;;;;;22.17;11.27;;;;;;;;;;5092894;28;20062;-50
2021/12/18 15:03:37;;;;;;;27.80;16.58;;;;;;;;;;5092764;28;20032;-46
2021/12/18 15:06:20;;;;;;;52.75;29.02;;;;;;;;;;5091101;28;20036;-50
2021/12/18 15:08:50;;;;;;;47.78;28.25;;;;;;;;;;5096097;28;20069;-47
2021/12/18 15:11:34;;;;;;;47.88;29.05;;;;;;;;;;5101006;28;20567;-47
2021/12/18 15:14:00;;;;;;;37.78;23.38;;;;;;;;;;5097261;28;20384;-45
2021/12/18 15:16:31;;;;;;;29.35;20.10;;;;;;;;;;5100152;28;20061;-49
2021/12/18 15:19:00;;;;;;;29.52;21.77;;;;;;;;;;5090769;28;20078;-52
2021/12/18 15:21:29;;;;;;;42.45;28.52;;;;;;;;;;5091468;28;20070;-45